createdAt,value
2019-02-04T00:00:36.588Z,4.87
2019-02-04T00:03:07.710Z,4.70
2019-02-04T00:05:36.547Z,3.93
2019-02-04T00:08:05.853Z,2.67
2019-02-04T00:10:34.843Z,5.30
2019-02-04T00:13:04.783Z,5.77
2019-02-04T00:15:33.744Z,4.47
2019-02-04T00:18:02.989Z,5.53
2019-02-04T00:20:31.805Z,6.17
2019-02-04T00:23:00.592Z,6.70
2019-02-04T00:25:29.477Z,5.93
2019-02-04T00:27:58.287Z,4.50
2019-02-04T00:30:27.652Z,4.63
2019-02-04T00:32:56.437Z,5.33
2019-02-04T00:35:25.249Z,5.67
2019-02-04T00:37:54.143Z,4.83
2019-02-04T00:40:23.634Z,4.90
2019-02-04T00:42:52.502Z,4.60
2019-02-04T00:45:22.290Z,5.60
2019-02-04T00:47:51.173Z,6.70
2019-02-04T00:50:20.583Z,4.83
2019-02-04T00:52:49.445Z,4.53
2019-02-04T00:55:18.496Z,5.00
2019-02-04T00:57:47.365Z,5.53
2019-02-04T01:00:19.723Z,7.03
2019-02-04T01:02:48.872Z,5.47
2019-02-04T01:05:19.419Z,7.80
2019-02-04T01:07:49.070Z,5.47
2019-02-04T01:10:20.922Z,7.90
2019-02-04T01:12:49.886Z,6.97
2019-02-04T01:15:19.087Z,3.40
2019-02-04T01:17:48.161Z,8.13
2019-02-04T01:20:20.214Z,4.80
2019-02-04T01:22:49.001Z,6.70
2019-02-04T01:25:17.949Z,6.87
2019-02-04T01:27:46.865Z,7.47
2019-02-04T01:30:16.491Z,4.67
2019-02-04T01:32:45.665Z,6.53
2019-02-04T01:35:14.843Z,7.13
2019-02-04T01:37:44.200Z,4.10
2019-02-04T01:40:16.043Z,7.57
2019-02-04T01:42:44.962Z,8.20
2019-02-04T01:45:13.939Z,7.27
2019-02-04T01:47:42.813Z,5.70
2019-02-04T01:50:14.070Z,5.77
2019-02-04T01:52:42.925Z,5.20
2019-02-04T01:55:12.024Z,7.90
2019-02-04T01:57:41.174Z,10.07
2019-02-04T02:00:16.806Z,5.10
2019-02-04T02:02:45.806Z,6.47
2019-02-04T02:05:15.272Z,6.83
2019-02-04T02:07:44.304Z,6.23
2019-02-04T02:10:16.385Z,6.47
2019-02-04T02:12:45.407Z,7.07
2019-02-04T02:15:14.444Z,6.37
2019-02-04T02:17:43.505Z,7.80
2019-02-04T02:20:14.985Z,4.93
2019-02-04T02:22:43.862Z,10.40
2019-02-04T02:25:12.763Z,5.87
2019-02-04T02:27:41.779Z,8.30
2019-02-04T02:30:14.261Z,11.37
2019-02-04T02:32:43.380Z,8.63
2019-02-04T02:35:12.634Z,8.23
2019-02-04T02:37:41.441Z,7.77
2019-02-04T02:40:14.907Z,9.97
2019-02-04T02:42:43.707Z,8.53
2019-02-04T02:45:12.739Z,5.27
2019-02-04T02:47:41.547Z,8.00
2019-02-04T02:50:11.133Z,7.27
2019-02-04T02:52:40.021Z,7.70
2019-02-04T02:55:10.716Z,6.65
2019-02-04T02:57:39.511Z,6.97
2019-02-04T03:00:12.167Z,8.53
2019-02-04T03:02:41.093Z,7.63
2019-02-04T03:05:11.330Z,9.20
2019-02-04T03:07:40.193Z,6.53
2019-02-04T03:10:12.166Z,6.30
2019-02-04T03:12:40.975Z,9.60
2019-02-04T03:15:10.521Z,8.63
2019-02-04T03:17:51.641Z,10.23
2019-02-04T03:20:10.293Z,7.40
2019-02-04T03:22:39.320Z,7.90
2019-02-04T03:25:09.528Z,10.63
2019-02-04T03:27:39.061Z,6.60
2019-02-04T03:30:15.258Z,11.67
2019-02-04T03:32:44.105Z,6.03
2019-02-04T03:35:13.553Z,9.93
2019-02-04T03:37:42.322Z,8.00
2019-02-04T03:40:14.443Z,6.07
2019-02-04T03:42:43.327Z,6.47
2019-02-04T03:45:12.885Z,6.43
2019-02-04T03:47:43.234Z,8.27
2019-02-04T03:50:12.576Z,8.73
2019-02-04T03:52:41.430Z,7.13
2019-02-04T03:57:52.957Z,6.33
2019-02-04T04:00:26.858Z,6.80
2019-02-04T04:02:55.870Z,5.73
2019-02-04T04:05:25.337Z,8.80
2019-02-04T04:07:54.193Z,6.80
2019-02-04T04:10:23.654Z,10.93
2019-02-04T04:12:52.558Z,5.90
2019-02-04T04:15:21.458Z,5.87
2019-02-04T04:17:50.463Z,5.33
2019-02-04T04:20:20.137Z,4.53
2019-02-04T04:22:48.966Z,8.20
2019-02-04T04:25:18.092Z,6.17
2019-02-04T04:27:47.763Z,7.40
2019-02-04T04:30:34.846Z,7.30
2019-02-04T04:33:03.951Z,11.17
2019-02-04T04:35:32.764Z,6.77
2019-02-04T04:38:01.625Z,8.33
2019-02-04T04:40:30.482Z,6.23
2019-02-04T04:42:59.373Z,9.50
2019-02-04T04:45:28.253Z,7.23
2019-02-04T04:47:57.217Z,8.10
2019-02-04T04:50:26.110Z,7.60
2019-02-04T04:52:55.169Z,8.23
2019-02-04T04:55:26.021Z,5.67
2019-02-04T04:57:55.420Z,8.27
2019-02-04T05:00:27.077Z,6.50
2019-02-04T05:02:56.094Z,7.60
2019-02-04T05:05:24.966Z,8.70
2019-02-04T05:07:53.954Z,7.10
2019-02-04T05:10:23.327Z,6.60
2019-02-04T05:12:52.249Z,5.80
2019-02-04T05:15:23.759Z,7.13
2019-02-04T05:17:53.132Z,6.47
2019-02-04T05:20:23.143Z,7.43
2019-02-04T05:22:52.161Z,7.20
2019-02-04T05:25:21.330Z,8.60
2019-02-04T05:27:50.277Z,7.30
2019-02-04T05:30:22.566Z,7.47
2019-02-04T05:32:51.517Z,6.53
2019-02-04T05:35:20.819Z,6.63
2019-02-04T05:37:49.909Z,9.27
2019-02-04T05:40:18.880Z,7.20
2019-02-04T05:42:48.428Z,7.27
2019-02-04T05:45:19.244Z,7.95
2019-02-04T05:47:48.531Z,7.83
2019-02-04T05:50:18.554Z,6.20
2019-02-04T05:52:47.818Z,6.80
2019-02-04T05:55:18.130Z,7.97
2019-02-04T05:57:47.189Z,7.00
2019-02-04T06:00:20.811Z,7.50
2019-02-04T06:02:49.898Z,9.50
2019-02-04T06:05:19.136Z,7.53
2019-02-04T06:07:48.292Z,7.10
2019-02-04T06:10:17.511Z,10.20
2019-02-04T06:12:46.300Z,6.47
2019-02-04T06:15:15.260Z,6.60
2019-02-04T06:17:44.282Z,6.47
2019-02-04T06:20:15.902Z,6.57
2019-02-04T06:22:44.804Z,8.93
2019-02-04T06:25:14.281Z,8.70
2019-02-04T06:27:43.238Z,8.80
2019-02-04T06:30:12.514Z,8.20
2019-02-04T06:32:41.290Z,5.67
2019-02-04T06:35:10.414Z,8.40
2019-02-04T06:37:39.320Z,6.73
2019-02-04T06:40:10.041Z,7.77
2019-02-04T06:42:38.821Z,6.17
2019-02-04T06:45:09.855Z,8.30
2019-02-04T06:47:38.822Z,7.73
2019-02-04T06:50:09.780Z,6.20
2019-02-04T06:52:39.126Z,5.60
2019-02-04T06:55:12.299Z,5.10
2019-02-04T06:57:41.111Z,7.47
2019-02-04T07:00:11.508Z,4.93
2019-02-04T07:02:40.383Z,5.37
2019-02-04T07:05:09.643Z,6.07
2019-02-04T07:07:38.985Z,7.23
2019-02-04T07:10:12.269Z,7.28
2019-02-04T07:12:41.068Z,9.50
2019-02-04T07:15:10.583Z,6.73
2019-02-04T07:17:39.366Z,6.03
2019-02-04T07:20:11.012Z,8.97
2019-02-04T07:22:39.995Z,9.00
2019-02-04T07:25:10.426Z,9.80
2019-02-04T07:27:39.221Z,4.37
2019-02-04T07:30:12.078Z,7.53
2019-02-04T07:32:40.955Z,6.67
2019-02-04T07:35:11.061Z,8.07
2019-02-04T07:37:39.913Z,6.43
2019-02-04T07:40:15.559Z,6.03
2019-02-04T07:42:44.578Z,6.03
2019-02-04T07:45:13.953Z,4.12
2019-02-04T07:47:42.855Z,8.77
2019-02-04T07:50:12.114Z,5.30
2019-02-04T07:52:41.012Z,8.00
2019-02-04T07:55:10.199Z,5.23
2019-02-04T07:57:39.387Z,4.50
2019-02-04T08:00:13.409Z,6.13
2019-02-04T08:02:42.573Z,5.27
2019-02-04T08:05:11.603Z,5.30
2019-02-04T08:07:40.563Z,7.33
2019-02-04T08:10:13.591Z,6.27
2019-02-04T08:12:42.530Z,7.33
2019-02-04T08:15:14.419Z,7.67
2019-02-04T08:17:43.321Z,5.87
2019-02-04T08:20:12.512Z,8.37
2019-02-04T08:22:41.322Z,5.23
2019-02-04T08:25:11.349Z,5.53
2019-02-04T08:27:40.240Z,6.03
2019-02-04T08:30:14.331Z,6.57
2019-02-04T08:32:43.211Z,5.90
2019-02-04T08:35:12.537Z,7.87
2019-02-04T08:37:41.425Z,7.37
2019-02-04T08:40:10.621Z,6.87
2019-02-04T08:42:40.281Z,7.33
2019-02-04T08:45:11.872Z,6.62
2019-02-04T08:47:40.751Z,6.83
2019-02-04T08:50:11.377Z,6.27
2019-02-04T08:52:40.184Z,5.57
2019-02-04T08:55:10.247Z,4.50
2019-02-04T08:57:39.201Z,4.80
2019-02-04T09:00:11.536Z,6.00
2019-02-04T09:02:40.398Z,6.93
2019-02-04T09:05:10.006Z,7.07
2019-02-04T09:07:39.021Z,5.55
2019-02-04T09:10:10.274Z,9.60
2019-02-04T09:12:39.078Z,4.70
2019-02-04T09:15:10.959Z,5.28
2019-02-04T09:17:40.121Z,5.90
2019-02-04T09:20:10.761Z,5.57
2019-02-04T09:22:39.757Z,6.33
2019-02-04T09:25:11.337Z,5.65
2019-02-04T09:27:40.128Z,6.97
2019-02-04T09:30:13.807Z,7.40
2019-02-04T09:32:42.695Z,4.77
2019-02-04T09:35:13.139Z,6.43
2019-02-04T09:37:42.058Z,5.87
2019-02-04T09:40:20.130Z,4.30
2019-02-04T09:42:49.377Z,5.00
2019-02-04T09:45:18.321Z,5.10
2019-02-04T09:47:47.478Z,6.67
2019-02-04T09:50:21.728Z,8.43
2019-02-04T09:52:48.543Z,5.67
2019-02-04T09:55:20.118Z,5.63
2019-02-04T09:57:50.826Z,3.27
2019-02-04T10:00:22.722Z,4.13
2019-02-04T10:02:51.847Z,5.70
2019-02-04T10:05:21.169Z,4.60
2019-02-04T10:07:50.046Z,6.70
2019-02-04T10:10:21.747Z,4.10
2019-02-04T10:12:52.519Z,5.40
2019-02-04T10:15:23.630Z,5.20
2019-02-04T10:17:52.524Z,4.83
2019-02-04T10:20:33.087Z,4.47
2019-02-04T10:22:52.250Z,4.63
2019-02-04T10:25:23.304Z,4.40
2019-02-04T10:27:52.461Z,4.63
2019-02-04T10:30:23.330Z,4.73
2019-02-04T10:32:52.477Z,3.17
2019-02-04T10:35:21.988Z,5.50
2019-02-04T10:37:51.539Z,8.07
2019-02-04T10:40:22.209Z,6.17
2019-02-04T10:42:51.271Z,5.73
2019-02-04T10:45:20.786Z,3.27
2019-02-04T10:47:50.144Z,4.33
2019-02-04T10:50:21.739Z,6.97
2019-02-04T10:52:50.580Z,4.87
2019-02-04T10:55:19.903Z,5.97
2019-02-04T10:57:48.977Z,3.93
2019-02-04T11:00:20.024Z,5.47
2019-02-04T11:02:49.084Z,4.93
2019-02-04T11:05:23.032Z,5.47
2019-02-04T11:07:52.180Z,5.37
2019-02-04T11:10:22.955Z,5.20
2019-02-04T11:12:52.178Z,5.43
2019-02-04T11:15:25.562Z,6.43
2019-02-04T11:17:53.559Z,4.30
2019-02-04T11:20:24.705Z,4.53
2019-02-04T11:22:53.656Z,6.27
2019-02-04T11:25:22.737Z,5.00
2019-02-04T11:27:51.669Z,4.50
2019-02-04T11:30:26.125Z,4.83
2019-02-04T11:32:55.796Z,4.87
2019-02-04T11:35:24.993Z,4.37
2019-02-04T11:37:53.903Z,6.00
2019-02-04T11:40:26.454Z,6.50
2019-02-04T11:42:55.407Z,6.67
2019-02-04T11:45:24.707Z,6.27
2019-02-04T11:47:54.041Z,6.17
2019-02-04T11:50:22.861Z,6.07
2019-02-04T11:52:51.935Z,4.90
2019-02-04T11:55:21.176Z,5.23
2019-02-04T11:57:50.166Z,5.50
2019-02-04T12:00:21.145Z,6.93
2019-02-04T12:02:51.075Z,4.87
2019-02-04T12:05:20.855Z,6.00
2019-02-04T12:07:50.011Z,4.87
2019-02-04T12:10:30.969Z,5.93
2019-02-04T12:13:00.530Z,5.20
2019-02-04T12:15:29.390Z,6.17
2019-02-04T12:17:58.279Z,7.30
2019-02-04T12:20:27.456Z,7.30
2019-02-04T12:22:56.529Z,7.87
2019-02-04T12:25:27.157Z,6.23
2019-02-04T12:27:57.013Z,4.90
2019-02-04T12:30:30.957Z,5.97
2019-02-04T12:32:59.484Z,5.80
2019-02-04T12:35:28.294Z,5.67
2019-02-04T12:37:57.312Z,5.27
2019-02-04T12:40:26.463Z,5.50
2019-02-04T12:42:55.503Z,8.87
2019-02-04T12:45:29.527Z,6.80
2019-02-04T12:48:00.900Z,8.50
2019-02-04T12:50:29.347Z,7.87
2019-02-04T12:52:58.221Z,7.17
2019-02-04T12:55:28.796Z,5.87
2019-02-04T12:57:57.946Z,7.43
2019-02-04T13:00:28.283Z,7.50
2019-02-04T13:02:57.604Z,7.90
2019-02-04T13:05:41.657Z,5.53
2019-02-04T13:08:11.505Z,7.20
2019-02-04T13:10:40.855Z,7.83
2019-02-04T13:13:12.689Z,7.23
2019-02-04T13:15:41.481Z,6.23
2019-02-04T13:18:10.817Z,7.40
2019-02-04T13:20:40.754Z,6.80
2019-02-04T13:23:10.096Z,8.20
2019-02-04T13:25:38.880Z,6.30
2019-02-04T13:28:17.011Z,6.43
2019-02-04T13:30:45.838Z,6.70
2019-02-04T13:33:14.767Z,5.30
2019-02-04T13:35:43.720Z,6.77
2019-02-04T13:38:12.653Z,6.47
2019-02-04T13:40:44.510Z,6.23
2019-02-04T13:43:13.987Z,7.47
2019-02-04T13:45:42.852Z,5.57
2019-02-04T13:48:12.452Z,6.87
2019-02-04T13:50:41.546Z,7.00
2019-02-04T13:53:10.758Z,6.10
2019-02-04T13:55:40.036Z,8.33
2019-02-04T13:58:09.432Z,7.60
2019-02-04T14:00:38.673Z,5.73
2019-02-04T14:03:08.741Z,5.90
2019-02-04T14:05:37.897Z,6.03
2019-02-04T14:08:07.369Z,6.87
2019-02-04T14:10:38.440Z,8.43
2019-02-04T14:13:07.841Z,6.93
2019-02-04T14:15:37.937Z,6.73
2019-02-04T14:18:07.989Z,8.27
2019-02-04T14:20:36.939Z,5.57
2019-02-04T14:23:06.011Z,6.53
2019-02-04T14:25:35.151Z,7.23
2019-02-04T14:28:04.801Z,6.80
2019-02-04T14:30:36.379Z,5.30
2019-02-04T14:33:05.861Z,5.40
2019-02-04T14:35:35.099Z,6.87
2019-02-04T14:38:05.181Z,6.73
2019-02-04T14:40:34.093Z,6.97
2019-02-04T14:43:34.777Z,6.70
2019-02-04T14:46:21.888Z,6.97
2019-02-04T14:49:44.690Z,6.80
2019-02-04T14:52:25.123Z,7.63
2019-02-04T14:55:21.246Z,7.10
2019-02-04T14:58:02.056Z,7.90
2019-02-04T15:01:11.520Z,7.17
2019-02-04T15:04:02.291Z,8.43
2019-02-04T15:07:02.029Z,8.30
2019-02-04T15:10:02.532Z,7.33
2019-02-04T15:13:00.305Z,6.97
2019-02-04T15:15:46.981Z,7.67
2019-02-04T15:18:50.109Z,6.63
2019-02-04T15:22:06.452Z,8.67
2019-02-04T15:25:10.938Z,7.57
2019-02-04T15:28:27.203Z,8.30
2019-02-04T15:31:44.360Z,10.00
2019-02-04T15:35:04.164Z,12.17
2019-02-04T15:37:48.015Z,8.67
2019-02-04T15:40:41.151Z,7.00
2019-02-04T15:44:01.251Z,9.07
2019-02-04T15:46:42.409Z,8.70
2019-02-04T15:49:50.783Z,9.70
2019-02-04T15:52:17.198Z,9.20
2019-02-04T15:54:46.305Z,7.93
2019-02-04T15:57:15.271Z,7.83
2019-02-04T15:59:44.122Z,6.77
2019-02-04T16:02:13.128Z,8.10
2019-02-04T16:04:41.934Z,7.50
2019-02-04T16:07:12.243Z,6.17
2019-02-04T16:09:41.075Z,5.73
2019-02-04T16:12:10.111Z,6.63
2019-02-04T16:14:39.052Z,6.83
2019-02-04T16:17:10.263Z,5.80
2019-02-04T16:19:39.154Z,5.97
2019-02-04T16:22:08.101Z,5.70
2019-02-04T16:24:37.151Z,5.43
2019-02-04T16:27:06.227Z,5.23
2019-02-04T16:29:35.066Z,5.20
2019-02-04T16:32:04.734Z,6.97
2019-02-04T16:34:33.540Z,6.03
2019-02-04T16:37:02.422Z,9.17
2019-02-04T16:39:31.287Z,6.90
2019-02-04T16:42:01.247Z,7.80
2019-02-04T16:44:30.329Z,7.27
2019-02-04T16:46:59.263Z,5.93
2019-02-04T16:49:28.320Z,9.63
2019-02-04T16:51:57.327Z,7.53
2019-02-04T16:54:26.213Z,5.60
2019-02-04T16:56:55.240Z,6.07
2019-02-04T16:59:24.185Z,6.77
2019-02-04T17:01:53.132Z,5.17
2019-02-04T17:04:22.115Z,8.10
2019-02-04T17:06:51.121Z,5.63
2019-02-04T17:09:20.009Z,7.60
2019-02-04T17:11:48.994Z,5.43
2019-02-04T17:14:18.159Z,14.47
2019-02-04T17:16:47.032Z,12.00
2019-02-04T17:19:15.875Z,18.43
2019-02-04T17:21:44.686Z,6.73
2019-02-04T17:24:13.490Z,20.33
2019-02-04T17:26:42.321Z,97.50
2019-02-04T17:29:11.511Z,64.03
2019-02-04T17:31:40.300Z,9.05
2019-02-04T17:34:09.089Z,6.30
2019-02-04T17:36:37.938Z,9.50
2019-02-04T17:39:08.475Z,4.90
2019-02-04T17:41:37.486Z,5.27
2019-02-04T17:44:07.409Z,5.07
2019-02-04T17:46:36.240Z,7.30
2019-02-04T17:49:05.561Z,4.97
2019-02-04T17:51:34.422Z,5.70
2019-02-04T17:54:05.148Z,5.20
2019-02-04T17:56:34.008Z,4.67
2019-02-04T17:59:03.631Z,5.87
2019-02-04T18:01:32.531Z,5.93
2019-02-04T18:04:01.451Z,7.90
2019-02-04T18:06:31.670Z,5.43
2019-02-04T18:09:00.669Z,4.47
2019-02-04T18:11:29.501Z,5.17
2019-02-04T18:13:58.687Z,6.43
2019-02-04T18:16:27.582Z,6.10
2019-02-04T18:18:56.434Z,5.87
2019-02-04T18:21:25.333Z,5.53
2019-02-04T18:23:54.252Z,5.80
2019-02-04T18:26:23.158Z,4.93
2019-02-04T18:28:52.703Z,5.03
2019-02-04T18:31:21.532Z,6.80
2019-02-04T18:33:50.649Z,6.43
2019-02-04T18:36:19.519Z,5.30
2019-02-04T18:38:48.317Z,7.00
2019-02-04T18:41:17.173Z,6.13
2019-02-04T18:43:45.991Z,5.53
2019-02-04T18:46:15.262Z,5.70
2019-02-04T18:48:44.610Z,5.30
2019-02-04T18:51:13.487Z,12.17
2019-02-04T18:53:42.457Z,4.87
2019-02-04T18:56:11.781Z,4.83
2019-02-04T18:58:40.976Z,6.10
2019-02-04T19:01:10.056Z,5.43
2019-02-04T19:03:38.979Z,6.37
2019-02-04T19:06:08.161Z,13.47
2019-02-04T19:08:38.310Z,6.50
2019-02-04T19:11:09.778Z,5.97
2019-02-04T19:13:38.610Z,6.00
2019-02-04T19:16:09.547Z,6.27
2019-02-04T19:18:38.428Z,24.73
2019-02-04T19:21:07.671Z,7.07
2019-02-04T19:23:36.499Z,7.40
2019-02-04T19:26:05.641Z,8.77
2019-02-04T19:28:34.474Z,6.43
2019-02-04T19:31:27.512Z,7.33
2019-02-04T19:33:56.455Z,8.07
2019-02-04T19:36:25.671Z,8.10
2019-02-04T19:38:54.646Z,6.67
2019-02-04T19:41:23.589Z,7.30
2019-02-04T19:43:53.262Z,6.97
2019-02-04T19:46:22.147Z,7.30
2019-02-04T19:48:51.216Z,7.23
2019-02-04T19:51:20.587Z,7.47
2019-02-04T19:53:50.807Z,7.43
2019-02-04T19:56:20.298Z,7.43
2019-02-04T19:58:51.254Z,8.57
2019-02-04T20:01:22.181Z,7.75
2019-02-04T20:03:52.987Z,7.60
2019-02-04T20:06:23.784Z,8.50
2019-02-04T20:08:54.635Z,9.13
2019-02-04T20:11:25.953Z,8.17
2019-02-04T20:13:54.866Z,7.60
2019-02-04T20:16:23.630Z,8.30
2019-02-04T20:18:53.033Z,8.73
2019-02-04T20:21:21.927Z,7.13
2019-02-04T20:23:50.724Z,7.80
2019-02-04T20:26:19.525Z,8.00
2019-02-04T20:28:48.502Z,7.83
2019-02-04T20:31:17.322Z,8.77
2019-02-04T20:33:46.523Z,9.63
2019-02-04T20:36:15.490Z,8.70
2019-02-04T20:38:44.372Z,8.10
2019-02-04T20:41:13.293Z,8.47
2019-02-04T20:43:42.143Z,8.90
2019-02-04T20:46:11.033Z,8.80
2019-02-04T20:48:40.043Z,11.50
2019-02-04T20:51:09.226Z,9.07
2019-02-04T20:53:37.987Z,9.33
2019-02-04T20:56:06.916Z,8.53
2019-02-04T20:58:35.709Z,9.70
2019-02-04T21:01:04.943Z,9.37
2019-02-04T21:03:33.892Z,10.30
2019-02-04T21:06:03.140Z,10.47
2019-02-04T21:08:32.191Z,10.47
2019-02-04T21:11:00.952Z,9.60
2019-02-04T21:13:29.847Z,9.60
2019-02-04T21:15:58.661Z,10.37
2019-02-04T21:18:27.445Z,9.50
2019-02-04T21:20:56.886Z,11.07
2019-02-04T21:23:25.676Z,10.43
2019-02-04T21:25:54.484Z,10.60
2019-02-04T21:28:23.286Z,10.10
2019-02-04T21:30:52.058Z,10.93
2019-02-04T21:33:20.850Z,11.57
2019-02-04T21:35:49.686Z,10.63
2019-02-04T21:38:18.634Z,10.87
2019-02-04T21:40:47.450Z,12.07
2019-02-04T21:43:16.418Z,11.37
2019-02-04T21:45:45.302Z,11.40
2019-02-04T21:48:14.136Z,11.40
2019-02-04T21:50:42.921Z,11.87
2019-02-04T21:53:11.871Z,12.37
2019-02-04T21:55:40.667Z,12.27
2019-02-04T21:58:09.535Z,11.80
2019-02-04T22:00:40.463Z,12.37
2019-02-04T22:03:09.419Z,11.20
2019-02-04T22:05:38.404Z,12.30
2019-02-04T22:08:07.850Z,12.63
2019-02-04T22:10:36.691Z,14.10
2019-02-04T22:13:05.875Z,12.47
2019-02-04T22:15:35.292Z,12.17
2019-02-04T22:18:04.820Z,12.87
2019-02-04T22:20:34.287Z,13.23
2019-02-04T22:23:03.189Z,13.57
2019-02-04T22:25:31.987Z,13.60
2019-02-04T22:28:00.877Z,13.30
2019-02-04T22:30:30.626Z,13.30
2019-02-04T22:32:59.663Z,13.67
2019-02-04T22:35:28.652Z,13.90
2019-02-04T22:37:57.969Z,16.30
2019-02-04T22:40:30.028Z,16.10
2019-02-04T22:42:59.724Z,16.43
2019-02-04T22:45:28.738Z,16.00
2019-02-04T22:47:57.862Z,14.03
2019-02-04T22:50:28.562Z,14.77
2019-02-04T22:52:58.495Z,14.27
2019-02-04T22:55:31.957Z,16.10
2019-02-04T22:57:58.407Z,15.60
2019-02-04T23:00:51.581Z,16.97
2019-02-04T23:03:21.800Z,15.93
2019-02-04T23:08:53.849Z,15.77
2019-02-04T23:11:22.979Z,17.13
2019-02-04T23:13:51.794Z,18.57
2019-02-04T23:19:08.167Z,17.23
2019-02-04T23:21:37.688Z,17.07
2019-02-04T23:24:07.358Z,19.47
2019-02-04T23:26:36.354Z,18.10
2019-02-04T23:29:06.149Z,19.20
2019-02-04T23:31:35.215Z,19.87
2019-02-04T23:34:04.598Z,18.87
2019-02-04T23:36:33.815Z,19.20
2019-02-04T23:39:03.136Z,19.90
2019-02-04T23:41:32.029Z,19.97
2019-02-04T23:44:00.911Z,20.07
2019-02-04T23:46:29.712Z,19.03
2019-02-04T23:48:59.444Z,20.97
2019-02-04T23:51:28.672Z,20.13
2019-02-04T23:53:57.471Z,23.00
2019-02-04T23:56:26.377Z,22.27
2019-02-04T23:58:55.367Z,21.33
